createdAt,value
2022-12-11T00:02:13.287Z,99637.27
2022-12-11T00:04:59.676Z,99637.65
2022-12-11T00:07:45.978Z,99635.17
2022-12-11T00:10:37.543Z,99627.64
2022-12-11T00:13:24.064Z,99630.25
2022-12-11T00:16:10.528Z,99632.34
2022-12-11T00:18:56.939Z,99638.29
2022-12-11T00:21:43.278Z,99634.96
2022-12-11T00:24:29.658Z,99629.21
2022-12-11T00:27:16.145Z,99629.95
2022-12-11T00:30:03.037Z,99634.17
2022-12-11T00:32:51.676Z,99629.28
2022-12-11T00:35:39.270Z,99628.95
2022-12-11T00:38:25.676Z,99635.42
2022-12-11T00:41:12.470Z,99640.70
2022-12-11T00:43:59.113Z,99641.77
2022-12-11T00:46:45.569Z,99640.88
2022-12-11T00:49:32.104Z,99635.92
2022-12-11T00:52:18.559Z,99635.89
2022-12-11T00:55:05.382Z,99634.94
2022-12-11T00:57:51.904Z,99626.35
2022-12-11T01:00:38.540Z,99621.45
2022-12-11T01:03:24.770Z,99620.25
2022-12-11T01:06:16.279Z,99622.92
2022-12-11T01:09:21.158Z,99628.02
2022-12-11T01:12:07.545Z,99639.25
2022-12-11T01:14:54.460Z,99648.00
2022-12-11T01:17:40.977Z,99653.45
2022-12-11T01:20:27.931Z,99652.11
2022-12-11T01:23:14.436Z,99653.14
2022-12-11T01:26:11.237Z,99650.50
2022-12-11T01:28:57.439Z,99648.73
2022-12-11T01:31:44.048Z,99650.60
2022-12-11T01:34:31.119Z,99651.80
2022-12-11T01:37:17.492Z,99656.87
2022-12-11T01:40:05.017Z,99656.19
2022-12-11T01:42:51.441Z,99657.61
2022-12-11T01:45:44.671Z,99657.10
2022-12-11T01:48:31.597Z,99653.63
2022-12-11T01:51:17.757Z,99651.02
2022-12-11T01:54:07.180Z,99646.70
2022-12-11T01:56:54.380Z,99645.85
2022-12-11T01:59:41.771Z,99638.38
2022-12-11T02:02:30.125Z,99634.55
2022-12-11T02:05:16.685Z,99629.41
2022-12-11T02:08:03.492Z,99622.56
2022-12-11T02:10:54.656Z,99612.73
2022-12-11T02:13:44.837Z,99605.70
2022-12-11T02:16:47.153Z,99601.84
2022-12-11T02:20:07.439Z,99599.73
2022-12-11T02:23:12.659Z,99591.34
2022-12-11T02:26:30.027Z,99589.33
2022-12-11T02:29:28.940Z,99593.13
2022-12-11T02:32:19.159Z,99598.09
2022-12-11T02:35:09.809Z,99601.45
2022-12-11T02:38:04.352Z,99605.80
2022-12-11T02:40:51.226Z,99602.64
2022-12-11T02:43:37.793Z,99599.98
2022-12-11T02:46:24.317Z,99598.07
2022-12-11T02:49:10.691Z,99602.29
2022-12-11T02:51:57.206Z,99608.40
2022-12-11T02:54:43.757Z,99605.26
2022-12-11T02:57:50.169Z,99604.41
2022-12-11T03:00:36.435Z,99603.39
2022-12-11T03:03:22.675Z,99606.23
2022-12-11T03:06:10.332Z,99615.69
2022-12-11T03:08:56.703Z,99615.15
2022-12-11T03:11:43.167Z,99615.51
2022-12-11T03:14:30.079Z,99614.45
2022-12-11T03:17:24.170Z,99612.00
2022-12-11T03:20:22.787Z,99609.04
2022-12-11T03:23:27.458Z,99606.08
2022-12-11T03:26:14.627Z,99605.58
2022-12-11T03:29:04.205Z,99605.98
2022-12-11T03:32:04.345Z,99610.61
2022-12-11T03:35:04.121Z,99614.97
2022-12-11T03:37:50.432Z,99608.48
2022-12-11T03:40:36.669Z,99607.45
2022-12-11T03:43:23.304Z,99607.41
2022-12-11T03:46:09.795Z,99605.43
2022-12-11T03:48:57.186Z,99603.48
2022-12-11T03:51:43.752Z,99608.91
2022-12-11T03:54:30.112Z,99606.47
2022-12-11T03:57:18.402Z,99608.40
2022-12-11T04:00:07.165Z,99604.55
2022-12-11T04:03:13.916Z,99598.96
2022-12-11T04:06:00.896Z,99592.75
2022-12-11T04:08:46.912Z,99589.83
2022-12-11T04:11:36.251Z,99587.38
2022-12-11T04:14:41.488Z,99589.96
2022-12-11T04:17:50.209Z,99591.00
2022-12-11T04:20:56.954Z,99588.48
2022-12-11T04:24:01.718Z,99590.89
2022-12-11T04:26:48.085Z,99588.00
2022-12-11T04:29:34.255Z,99580.73
2022-12-11T04:32:20.799Z,99570.94
2022-12-11T04:35:08.690Z,99574.27
2022-12-11T04:37:55.383Z,99581.09
2022-12-11T04:40:41.692Z,99583.73
2022-12-11T04:43:28.067Z,99578.46
2022-12-11T04:46:16.478Z,99575.46
2022-12-11T04:49:03.132Z,99578.79
2022-12-11T04:51:49.087Z,99576.16
2022-12-11T04:54:35.609Z,99572.51
2022-12-11T04:57:22.017Z,99575.13
2022-12-11T05:00:10.018Z,99572.84
2022-12-11T05:02:56.537Z,99572.14
2022-12-11T05:05:51.367Z,99567.44
2022-12-11T05:08:38.770Z,99563.95
2022-12-11T05:11:25.166Z,99564.35
2022-12-11T05:14:11.785Z,99560.86
2022-12-11T05:17:02.153Z,99559.99
2022-12-11T05:19:49.408Z,99563.45
2022-12-11T05:22:36.484Z,99556.61
2022-12-11T05:25:23.010Z,99553.76
2022-12-11T05:28:09.276Z,99553.95
2022-12-11T05:30:56.963Z,99556.95
2022-12-11T05:33:43.552Z,99549.83
2022-12-11T05:36:31.955Z,99553.17
2022-12-11T05:39:18.395Z,99550.23
2022-12-11T05:42:04.604Z,99549.58
2022-12-11T05:44:51.131Z,99547.48
2022-12-11T05:47:37.264Z,99546.23
2022-12-11T05:50:23.720Z,99548.98
2022-12-11T05:53:09.836Z,99549.30
2022-12-11T05:56:02.313Z,99548.73
2022-12-11T05:58:48.830Z,99546.48
2022-12-11T06:01:43.876Z,99550.00
2022-12-11T06:04:30.468Z,99554.77
2022-12-11T06:07:16.539Z,99556.73
2022-12-11T06:10:02.986Z,99556.39
2022-12-11T06:12:48.976Z,99557.27
2022-12-11T06:15:35.105Z,99558.85
2022-12-11T06:18:21.812Z,99560.06
2022-12-11T06:21:18.844Z,99566.02
2022-12-11T06:24:05.848Z,99565.86
2022-12-11T06:26:51.905Z,99565.02
2022-12-11T06:29:38.199Z,99567.52
2022-12-11T06:32:24.302Z,99567.71
2022-12-11T06:35:10.915Z,99576.81
2022-12-11T06:37:57.511Z,99582.77
2022-12-11T06:40:44.077Z,99593.70
2022-12-11T06:43:31.613Z,99595.58
2022-12-11T06:46:19.037Z,99595.04
2022-12-11T06:49:05.528Z,99593.09
2022-12-11T06:51:52.331Z,99594.17
2022-12-11T06:54:38.607Z,99599.58
2022-12-11T06:57:25.211Z,99601.48
2022-12-11T07:00:12.246Z,99602.38
2022-12-11T07:02:58.704Z,99596.98
2022-12-11T07:05:45.307Z,99598.05
2022-12-11T07:08:32.097Z,99596.66
2022-12-11T07:11:18.760Z,99598.58
2022-12-11T07:14:04.940Z,99601.88
2022-12-11T07:16:51.408Z,99604.48
2022-12-11T07:19:37.806Z,99601.47
2022-12-11T07:22:24.313Z,99596.54
2022-12-11T07:25:10.690Z,99601.94
2022-12-11T07:27:56.932Z,99600.36
2022-12-11T07:30:43.613Z,99598.98
2022-12-11T07:33:29.847Z,99602.50
2022-12-11T07:36:16.485Z,99611.61
2022-12-11T07:39:02.685Z,99615.33
2022-12-11T07:41:49.000Z,99614.96
2022-12-11T07:44:35.531Z,99614.79
2022-12-11T07:47:21.603Z,99606.73
2022-12-11T07:50:08.055Z,99609.33
2022-12-11T07:52:54.742Z,99605.13
2022-12-11T07:55:41.058Z,99603.92
2022-12-11T07:58:27.755Z,99604.67
2022-12-11T08:01:21.668Z,99607.34
2022-12-11T08:04:09.421Z,99603.71
2022-12-11T08:06:55.814Z,99608.39
2022-12-11T08:09:42.284Z,99606.42
2022-12-11T08:12:28.552Z,99613.41
2022-12-11T08:15:14.713Z,99614.80
2022-12-11T08:18:01.282Z,99612.84
2022-12-11T08:20:47.803Z,99609.15
2022-12-11T08:23:34.378Z,99607.39
2022-12-11T08:26:25.714Z,99608.45
2022-12-11T08:29:11.750Z,99607.80
2022-12-11T08:31:58.456Z,99603.11
2022-12-11T08:34:45.156Z,99603.09
2022-12-11T08:37:31.572Z,99607.95
2022-12-11T08:40:17.919Z,99601.98
2022-12-11T08:43:04.084Z,99606.54
2022-12-11T08:45:50.805Z,99605.30
2022-12-11T08:48:38.028Z,99610.35
2022-12-11T08:51:26.482Z,99609.98
2022-12-11T08:54:12.997Z,99610.37
2022-12-11T08:56:59.484Z,99610.58
2022-12-11T08:59:45.939Z,99613.56
2022-12-11T09:02:32.487Z,99617.40
2022-12-11T09:05:19.183Z,99618.82
2022-12-11T09:08:05.471Z,99618.98
2022-12-11T09:10:51.760Z,99617.21
2022-12-11T09:13:38.860Z,99609.85
2022-12-11T09:16:25.790Z,99608.11
2022-12-11T09:19:16.472Z,99607.44
2022-12-11T09:22:02.915Z,99600.63
2022-12-11T09:24:49.342Z,99597.65
2022-12-11T09:27:35.639Z,99591.59
2022-12-11T09:30:22.130Z,99588.35
2022-12-11T09:33:08.579Z,99579.26
2022-12-11T09:36:01.001Z,99580.33
2022-12-11T09:38:47.945Z,99578.02
2022-12-11T09:41:38.022Z,99570.46
2022-12-11T09:44:41.341Z,99569.56
2022-12-11T09:47:57.363Z,99566.38
2022-12-11T09:50:46.037Z,99566.88
2022-12-11T09:53:35.953Z,99564.58
2022-12-11T09:56:27.934Z,99557.94
2022-12-11T09:59:29.723Z,99556.19
2022-12-11T10:02:44.844Z,99548.02
2022-12-11T10:06:01.040Z,99546.79
2022-12-11T10:08:56.773Z,99546.48
2022-12-11T10:11:58.001Z,99547.02
2022-12-11T10:15:06.595Z,99547.52
2022-12-11T10:17:57.513Z,99538.41
2022-12-11T10:20:46.541Z,99532.77
2022-12-11T10:23:36.236Z,99527.86
2022-12-11T10:26:23.487Z,99522.06
2022-12-11T10:29:14.599Z,99519.61
2022-12-11T10:32:01.186Z,99517.55
2022-12-11T10:34:47.530Z,99522.69
2022-12-11T10:37:33.957Z,99522.00
2022-12-11T10:40:20.527Z,99521.08
2022-12-11T10:43:06.803Z,99520.16
2022-12-11T10:45:53.676Z,99519.64
2022-12-11T10:48:53.646Z,99521.23
2022-12-11T10:51:40.172Z,99519.91
2022-12-11T10:54:30.421Z,99514.88
2022-12-11T10:57:16.915Z,99506.86
2022-12-11T11:00:06.102Z,99504.80
2022-12-11T11:02:52.178Z,99501.84
2022-12-11T11:05:38.433Z,99505.02
2022-12-11T11:08:24.882Z,99506.86
2022-12-11T11:11:34.315Z,99498.45
2022-12-11T11:14:21.224Z,99493.79
2022-12-11T11:17:14.027Z,99493.15
2022-12-11T11:20:01.513Z,99489.15
2022-12-11T11:22:49.978Z,99486.87
2022-12-11T11:25:36.555Z,99481.30
2022-12-11T11:28:25.890Z,99471.38
2022-12-11T11:31:13.786Z,99469.81
2022-12-11T11:34:05.849Z,99472.81
2022-12-11T11:36:59.723Z,99472.13
2022-12-11T11:39:48.101Z,99469.86
2022-12-11T11:42:44.268Z,99467.39
2022-12-11T11:45:34.574Z,99457.48
2022-12-11T11:48:41.136Z,99453.83
2022-12-11T11:51:30.644Z,99454.73
2022-12-11T11:54:22.776Z,99457.34
2022-12-11T11:57:15.953Z,99454.17
2022-12-11T12:00:10.750Z,99454.69
2022-12-11T12:03:01.797Z,99452.26
2022-12-11T12:06:06.457Z,99449.98
2022-12-11T12:08:56.729Z,99452.23
2022-12-11T12:12:03.762Z,99454.64
2022-12-11T12:15:13.387Z,99455.20
2022-12-11T12:18:10.023Z,99454.34
2022-12-11T12:21:00.185Z,99457.99
2022-12-11T12:24:08.602Z,99455.76
2022-12-11T12:27:01.941Z,99456.14
2022-12-11T12:29:51.480Z,99458.27
2022-12-11T12:33:03.799Z,99454.29
2022-12-11T12:35:52.907Z,99451.45
2022-12-11T12:38:42.874Z,99449.52
2022-12-11T12:41:41.522Z,99452.80
2022-12-11T12:44:27.677Z,99454.52
2022-12-11T12:47:15.432Z,99456.11
2022-12-11T12:50:01.855Z,99452.15
2022-12-11T12:52:48.237Z,99454.95
2022-12-11T12:55:34.933Z,99447.84
2022-12-11T12:58:28.401Z,99447.69
2022-12-11T13:01:22.585Z,99447.19
2022-12-11T13:04:54.399Z,99446.70
2022-12-11T13:07:33.840Z,99447.20
2022-12-11T13:10:37.337Z,99447.52
2022-12-11T13:13:38.039Z,99455.55
2022-12-11T13:16:26.035Z,99455.38
2022-12-11T13:19:25.487Z,99458.17
2022-12-11T13:22:14.706Z,99460.96
2022-12-11T13:25:02.595Z,99455.93
2022-12-11T13:27:49.852Z,99453.20
2022-12-11T13:30:36.530Z,99455.81
2022-12-11T13:33:23.034Z,99447.05
2022-12-11T13:36:15.100Z,99450.17
2022-12-11T13:39:27.483Z,99444.77
2022-12-11T13:42:23.855Z,99444.42
2022-12-11T13:45:18.952Z,99447.05
2022-12-11T13:48:06.079Z,99447.11
2022-12-11T13:50:52.539Z,99449.73
2022-12-11T13:53:39.019Z,99450.62
2022-12-11T13:56:25.316Z,99445.55
2022-12-11T13:59:24.752Z,99442.40
2022-12-11T14:02:13.776Z,99450.22
2022-12-11T14:05:03.700Z,99452.63
2022-12-11T14:07:57.335Z,99451.58
2022-12-11T14:10:44.098Z,99453.81
2022-12-11T14:13:37.868Z,99455.55
2022-12-11T14:16:25.061Z,99460.32
2022-12-11T14:19:14.400Z,99458.59
2022-12-11T14:22:02.719Z,99460.88
2022-12-11T14:26:33.002Z,99461.08
2022-12-11T14:29:27.729Z,99464.59
2022-12-11T14:32:35.096Z,99463.55
2022-12-11T14:35:38.617Z,99462.17
2022-12-11T14:38:28.137Z,99452.59
2022-12-11T14:41:30.656Z,99453.69
2022-12-11T14:44:17.640Z,99450.42
2022-12-11T14:47:06.174Z,99447.45
2022-12-11T14:49:55.712Z,99440.48
2022-12-11T14:53:04.296Z,99445.75
2022-12-11T14:55:50.659Z,99446.97
2022-12-11T14:58:40.645Z,99450.30
2022-12-11T15:01:32.522Z,99454.50
2022-12-11T15:04:31.479Z,99452.41
2022-12-11T15:07:21.662Z,99456.59
2022-12-11T15:10:31.488Z,99455.02
2022-12-11T15:13:22.924Z,99449.44
2022-12-11T15:16:10.250Z,99456.63
2022-12-11T15:18:56.920Z,99456.27
2022-12-11T15:21:43.461Z,99454.55
2022-12-11T15:24:50.396Z,99457.74
2022-12-11T15:27:37.908Z,99458.45
2022-12-11T15:30:27.005Z,99452.70
2022-12-11T15:33:18.681Z,99461.78
2022-12-11T15:36:06.720Z,99461.60
2022-12-11T15:38:53.530Z,99462.30
2022-12-11T15:41:41.311Z,99460.56
2022-12-11T15:44:28.212Z,99457.77
2022-12-11T15:47:15.590Z,99460.38
2022-12-11T15:50:08.543Z,99460.20
2022-12-11T15:52:55.940Z,99464.73
2022-12-11T15:55:42.320Z,99461.43
2022-12-11T15:58:28.836Z,99458.13
2022-12-11T16:01:15.715Z,99460.40
2022-12-11T16:04:05.070Z,99463.00
2022-12-11T16:06:52.015Z,99466.13
2022-12-11T16:09:38.841Z,99461.60
2022-12-11T16:12:25.383Z,99461.95
2022-12-11T16:15:15.301Z,99465.10
2022-12-11T16:18:06.674Z,99460.23
2022-12-11T16:20:53.190Z,99463.37
2022-12-11T16:23:39.928Z,99465.98
2022-12-11T16:26:26.528Z,99472.09
2022-12-11T16:29:13.025Z,99468.95
2022-12-11T16:31:59.622Z,99469.83
2022-12-11T16:34:46.459Z,99465.11
2022-12-11T16:37:32.972Z,99463.36
2022-12-11T16:40:19.600Z,99458.48
2022-12-11T16:43:06.426Z,99453.59
2022-12-11T16:45:56.391Z,99447.14
2022-12-11T16:48:45.144Z,99450.45
2022-12-11T16:51:32.104Z,99446.96
2022-12-11T16:54:18.757Z,99448.19
2022-12-11T16:57:05.267Z,99441.74
2022-12-11T16:59:52.352Z,99444.70
2022-12-11T17:02:39.280Z,99440.89
2022-12-11T17:05:26.278Z,99442.10
2022-12-11T17:08:12.819Z,99436.52
2022-12-11T17:10:59.368Z,99436.17
2022-12-11T17:13:46.259Z,99433.37
2022-12-11T17:16:34.077Z,99431.80
2022-12-11T17:19:21.108Z,99435.29
2022-12-11T17:22:07.614Z,99437.39
2022-12-11T17:24:54.117Z,99436.88
2022-12-11T17:27:41.003Z,99443.15
2022-12-11T17:30:27.681Z,99437.91
2022-12-11T17:33:14.383Z,99438.62
2022-12-11T17:36:01.512Z,99439.48
2022-12-11T17:38:49.824Z,99439.32
2022-12-11T17:41:36.423Z,99442.45
2022-12-11T17:44:23.104Z,99446.12
2022-12-11T17:47:12.095Z,99445.95
2022-12-11T17:49:58.912Z,99440.55
2022-12-11T17:52:45.565Z,99441.77
2022-12-11T17:55:32.283Z,99442.63
2022-12-11T17:58:20.851Z,99444.21
2022-12-11T18:01:08.564Z,99448.91
2022-12-11T18:03:55.081Z,99450.48
2022-12-11T18:06:41.905Z,99449.44
2022-12-11T18:09:28.316Z,99450.84
2022-12-11T18:12:15.294Z,99448.92
2022-12-11T18:15:02.350Z,99449.09
2022-12-11T18:17:49.084Z,99451.52
2022-12-11T18:20:35.962Z,99447.52
2022-12-11T18:23:22.987Z,99451.16
2022-12-11T18:26:11.233Z,99453.61
2022-12-11T18:28:57.885Z,99455.71
2022-12-11T18:31:44.283Z,99456.58
2022-12-11T18:34:30.998Z,99455.89
2022-12-11T18:37:17.851Z,99454.67
2022-12-11T18:40:05.196Z,99453.98
2022-12-11T18:42:51.964Z,99452.77
2022-12-11T18:45:42.433Z,99452.94
2022-12-11T18:48:28.921Z,99455.90
2022-12-11T18:51:19.154Z,99458.70
2022-12-11T18:54:05.840Z,99453.81
2022-12-11T18:56:52.235Z,99450.34
2022-12-11T18:59:39.128Z,99451.22
2022-12-11T19:02:25.467Z,99453.13
2022-12-11T19:05:12.612Z,99450.70
2022-12-11T19:07:59.484Z,99450.02
2022-12-11T19:10:47.155Z,99450.90
2022-12-11T19:13:33.866Z,99445.86
2022-12-11T19:16:33.858Z,99440.29
2022-12-11T19:19:22.012Z,99437.66
2022-12-11T19:22:09.122Z,99433.65
2022-12-11T19:24:55.690Z,99428.23
2022-12-11T19:27:42.151Z,99429.45
2022-12-11T19:30:29.146Z,99430.86
2022-12-11T19:33:16.031Z,99425.65
2022-12-11T19:36:10.709Z,99428.44
2022-12-11T19:39:01.560Z,99431.39
2022-12-11T19:41:48.501Z,99432.59
2022-12-11T19:44:35.770Z,99431.22
2022-12-11T19:47:22.273Z,99430.70
2022-12-11T19:50:08.818Z,99430.00
2022-12-11T19:52:55.109Z,99428.10
2022-12-11T19:55:49.462Z,99432.45
2022-12-11T19:58:35.855Z,99434.02
2022-12-11T20:01:26.055Z,99433.30
2022-12-11T20:04:13.640Z,99437.66
2022-12-11T20:07:00.372Z,99434.35
2022-12-11T20:09:47.065Z,99430.52
2022-12-11T20:12:33.653Z,99429.66
2022-12-11T20:15:20.544Z,99434.89
2022-12-11T20:18:07.247Z,99430.35
2022-12-11T20:20:54.114Z,99430.47
2022-12-11T20:23:40.794Z,99428.20
2022-12-11T20:26:27.464Z,99423.31
2022-12-11T20:29:14.411Z,99421.23
2022-12-11T20:32:01.062Z,99425.64
2022-12-11T20:34:48.173Z,99423.55
2022-12-11T20:37:34.788Z,99426.87
2022-12-11T20:40:21.347Z,99427.39
2022-12-11T20:43:08.258Z,99428.27
2022-12-11T20:45:55.432Z,99425.46
2022-12-11T20:48:42.825Z,99425.12
2022-12-11T20:51:29.995Z,99423.55
2022-12-11T20:54:17.041Z,99416.95
2022-12-11T20:57:03.677Z,99412.06
2022-12-11T20:59:50.692Z,99410.66
2022-12-11T21:02:37.026Z,99413.27
2022-12-11T21:05:23.869Z,99411.88
2022-12-11T21:08:10.924Z,99413.27
2022-12-11T21:10:57.763Z,99411.51
2022-12-11T21:13:44.517Z,99410.13
2022-12-11T21:16:31.061Z,99411.50
2022-12-11T21:19:20.133Z,99406.47
2022-12-11T21:22:06.812Z,99413.96
2022-12-11T21:24:53.287Z,99414.15
2022-12-11T21:27:40.126Z,99415.19
2022-12-11T21:30:26.931Z,99413.44
2022-12-11T21:33:13.601Z,99414.45
2022-12-11T21:36:00.640Z,99413.10
2022-12-11T21:38:47.689Z,99414.85
2022-12-11T21:41:34.237Z,99409.77
2022-12-11T21:47:28.829Z,99409.73
2022-12-11T21:50:16.408Z,99407.80
2022-12-11T21:53:03.721Z,99411.98
2022-12-11T21:55:50.362Z,99411.11
2022-12-11T21:58:37.611Z,99413.56
2022-12-11T22:01:37.185Z,99407.83
2022-12-11T22:04:23.565Z,99408.73
2022-12-11T22:07:10.101Z,99408.91
2022-12-11T22:09:58.209Z,99407.49
2022-12-11T22:12:44.424Z,99404.55
2022-12-11T22:15:31.316Z,99403.51
2022-12-11T22:18:18.696Z,99398.82
2022-12-11T22:21:05.349Z,99399.69
2022-12-11T22:23:51.995Z,99399.52
2022-12-11T22:26:39.092Z,99402.65
2022-12-11T22:29:25.806Z,99397.94
2022-12-11T22:32:12.304Z,99400.67
2022-12-11T22:34:58.726Z,99399.63
2022-12-11T22:37:46.048Z,99398.05
2022-12-11T22:40:32.756Z,99395.97
2022-12-11T22:43:19.389Z,99398.05
2022-12-11T22:46:06.346Z,99398.59
2022-12-11T22:48:53.627Z,99399.10
2022-12-11T22:51:40.779Z,99399.80
2022-12-11T22:54:27.311Z,99401.35
2022-12-11T22:57:14.409Z,99402.04
2022-12-11T23:00:01.101Z,99400.45
2022-12-11T23:02:47.708Z,99399.41
2022-12-11T23:05:34.482Z,99393.99
2022-12-11T23:08:21.303Z,99392.27
2022-12-11T23:11:18.274Z,99395.23
2022-12-11T23:14:05.908Z,99396.65
2022-12-11T23:16:52.181Z,99393.34
2022-12-11T23:19:38.816Z,99387.60
2022-12-11T23:22:25.356Z,99390.21
2022-12-11T23:25:14.825Z,99388.81
2022-12-11T23:28:01.802Z,99386.37
2022-12-11T23:30:48.462Z,99384.45
2022-12-11T23:33:35.631Z,99386.52
2022-12-11T23:36:22.198Z,99388.60
2022-12-11T23:39:08.696Z,99387.22
2022-12-11T23:41:55.425Z,99387.23
2022-12-11T23:44:42.153Z,99384.63
2022-12-11T23:47:28.896Z,99384.11
2022-12-11T23:50:15.524Z,99388.48
2022-12-11T23:53:02.281Z,99387.42
2022-12-11T23:55:48.912Z,99391.08
2022-12-11T23:58:36.271Z,99392.98
